createdAt,value
2018-04-27T00:00:54.200Z,90.51
2018-04-27T00:01:54.190Z,91.08
2018-04-27T00:02:54.192Z,90.70
2018-04-27T00:03:54.187Z,90.80
2018-04-27T00:04:54.182Z,90.99
2018-04-27T00:05:54.177Z,90.84
2018-04-27T00:06:54.176Z,90.80
2018-04-27T00:07:54.192Z,91.03
2018-04-27T00:08:55.153Z,91.22
2018-04-27T00:09:54.161Z,91.27
2018-04-27T00:10:54.161Z,91.51
2018-04-27T00:11:54.154Z,91.32
2018-04-27T00:12:54.152Z,91.32
2018-04-27T00:13:54.146Z,90.75
2018-04-27T00:14:54.185Z,90.56
2018-04-27T00:15:54.138Z,90.75
2018-04-27T00:16:54.139Z,90.56
2018-04-27T00:17:54.130Z,90.66
2018-04-27T00:18:54.130Z,90.94
2018-04-27T00:19:54.123Z,91.03
2018-04-27T00:20:54.127Z,91.13
2018-04-27T00:21:54.117Z,91.80
2018-04-27T00:22:54.110Z,91.32
2018-04-27T00:23:54.107Z,91.32
2018-04-27T00:24:54.102Z,91.51
2018-04-27T00:25:54.099Z,91.32
2018-04-27T00:26:54.096Z,91.13
2018-04-27T00:27:54.101Z,90.94
2018-04-27T00:28:54.089Z,90.94
2018-04-27T00:29:54.082Z,90.56
2018-04-27T00:30:54.086Z,90.84
2018-04-27T00:31:54.089Z,90.75
2018-04-27T00:32:54.071Z,90.66
2018-04-27T00:33:54.068Z,90.75
2018-04-27T00:34:54.073Z,90.56
2018-04-27T00:35:54.063Z,90.52
2018-04-27T00:36:54.055Z,89.94
2018-04-27T00:37:54.050Z,91.42
2018-04-27T00:38:54.050Z,90.99
2018-04-27T00:39:54.048Z,91.18
2018-04-27T00:40:54.040Z,91.66
2018-04-27T00:41:54.040Z,91.28
2018-04-27T00:42:54.031Z,91.22
2018-04-27T00:43:54.027Z,90.70
2018-04-27T00:44:54.025Z,90.80
2018-04-27T00:45:54.031Z,91.18
2018-04-27T00:46:54.026Z,90.70
2018-04-27T00:47:54.012Z,90.70
2018-04-27T00:48:54.023Z,91.08
2018-04-27T00:49:54.002Z,90.61
2018-04-27T00:50:54.006Z,90.99
2018-04-27T00:51:53.997Z,91.28
2018-04-27T00:52:53.997Z,91.08
2018-04-27T00:53:53.988Z,90.80
2018-04-27T00:54:53.988Z,90.99
2018-04-27T00:55:53.977Z,90.89
2018-04-27T00:56:53.983Z,91.08
2018-04-27T00:57:53.972Z,90.04
2018-04-27T00:58:53.964Z,91.18
2018-04-27T00:59:53.991Z,90.61
2018-04-27T01:00:53.957Z,91.08
2018-04-27T01:01:53.959Z,90.80
2018-04-27T01:02:53.949Z,90.70
2018-04-27T01:03:53.945Z,90.70
2018-04-27T01:04:53.941Z,90.70
2018-04-27T01:05:53.938Z,91.08
2018-04-27T01:06:53.944Z,90.42
2018-04-27T01:07:53.928Z,90.14
2018-04-27T01:08:53.928Z,90.42
2018-04-27T01:09:53.922Z,90.61
2018-04-27T01:10:53.992Z,90.52
2018-04-27T01:11:53.914Z,90.04
2018-04-27T01:12:53.911Z,90.23
2018-04-27T01:13:53.903Z,90.61
2018-04-27T01:14:53.900Z,90.52
2018-04-27T01:15:53.906Z,90.42
2018-04-27T01:16:53.894Z,90.33
2018-04-27T01:17:53.892Z,90.42
2018-04-27T01:18:53.882Z,90.14
2018-04-27T01:19:53.880Z,90.80
2018-04-27T01:20:53.875Z,90.61
2018-04-27T01:21:53.874Z,90.23
2018-04-27T01:22:53.878Z,90.52
2018-04-27T01:23:53.862Z,90.14
2018-04-27T01:24:53.861Z,90.14
2018-04-27T01:25:53.862Z,90.23
2018-04-27T01:26:53.851Z,90.04
2018-04-27T01:27:53.844Z,90.61
2018-04-27T01:28:53.842Z,90.33
2018-04-27T01:29:53.837Z,91.37
2018-04-27T01:30:53.833Z,90.80
2018-04-27T01:31:53.828Z,91.18
2018-04-27T01:32:53.823Z,90.61
2018-04-27T01:33:53.817Z,90.52
2018-04-27T01:34:53.812Z,91.28
2018-04-27T01:35:53.823Z,91.37
2018-04-27T01:36:53.806Z,90.70
2018-04-27T01:37:53.798Z,90.99
2018-04-27T01:38:53.798Z,91.08
2018-04-27T01:39:53.790Z,90.89
2018-04-27T01:40:54.312Z,90.61
2018-04-27T01:41:53.846Z,90.42
2018-04-27T01:42:53.785Z,91.28
2018-04-27T01:43:53.776Z,90.70
2018-04-27T01:44:53.780Z,90.75
2018-04-27T01:45:53.762Z,91.33
2018-04-27T01:46:53.763Z,91.18
2018-04-27T01:47:53.754Z,91.04
2018-04-27T01:48:53.751Z,91.28
2018-04-27T01:49:53.745Z,91.04
2018-04-27T01:50:53.743Z,90.94
2018-04-27T01:51:53.738Z,91.13
2018-04-27T01:52:53.738Z,91.52
2018-04-27T01:53:53.733Z,91.13
2018-04-27T01:54:53.725Z,91.42
2018-04-27T01:55:53.721Z,91.33
2018-04-27T01:56:53.714Z,91.33
2018-04-27T01:57:53.708Z,90.85
2018-04-27T01:58:53.705Z,90.66
2018-04-27T01:59:53.700Z,91.13
2018-04-27T02:00:53.695Z,90.56
2018-04-27T02:01:53.693Z,90.09
2018-04-27T02:02:53.685Z,90.37
2018-04-27T02:03:53.680Z,89.90
2018-04-27T02:04:53.680Z,90.09
2018-04-27T02:05:53.674Z,90.66
2018-04-27T02:06:53.674Z,90.47
2018-04-27T02:07:53.663Z,90.47
2018-04-27T02:08:53.660Z,90.37
2018-04-27T02:09:53.655Z,90.47
2018-04-27T02:10:53.648Z,90.75
2018-04-27T02:11:53.634Z,90.28
2018-04-27T02:12:53.643Z,90.56
2018-04-27T02:13:53.625Z,90.47
2018-04-27T02:14:53.666Z,90.66
2018-04-27T02:15:53.621Z,90.00
2018-04-27T02:16:53.612Z,90.09
2018-04-27T02:17:53.606Z,90.37
2018-04-27T02:18:53.608Z,90.75
2018-04-27T02:19:53.605Z,90.56
2018-04-27T02:20:53.594Z,90.56
2018-04-27T02:21:53.588Z,90.66
2018-04-27T02:22:53.583Z,90.56
2018-04-27T02:23:53.596Z,90.00
2018-04-27T02:24:53.576Z,90.47
2018-04-27T02:25:53.569Z,90.00
2018-04-27T02:26:53.566Z,90.19
2018-04-27T02:27:53.568Z,90.47
2018-04-27T02:28:53.555Z,90.28
2018-04-27T02:29:53.550Z,90.28
2018-04-27T02:30:53.551Z,90.56
2018-04-27T02:31:53.542Z,90.09
2018-04-27T02:32:53.537Z,90.19
2018-04-27T02:33:53.535Z,90.28
2018-04-27T02:34:53.529Z,90.19
2018-04-27T02:35:53.523Z,90.37
2018-04-27T02:36:53.518Z,90.56
2018-04-27T02:37:53.512Z,90.66
2018-04-27T02:38:53.509Z,90.66
2018-04-27T02:39:53.510Z,90.56
2018-04-27T02:40:53.509Z,91.23
2018-04-27T02:41:53.501Z,90.56
2018-04-27T02:42:53.488Z,90.19
2018-04-27T02:43:53.485Z,90.09
2018-04-27T02:44:53.480Z,90.94
2018-04-27T02:45:53.477Z,91.33
2018-04-27T02:46:53.469Z,90.94
2018-04-27T02:47:53.463Z,90.85
2018-04-27T02:48:53.459Z,90.66
2018-04-27T02:49:53.453Z,90.66
2018-04-27T02:50:53.452Z,90.66
2018-04-27T02:51:53.446Z,90.94
2018-04-27T02:52:53.441Z,91.23
2018-04-27T02:53:53.442Z,90.75
2018-04-27T02:54:53.431Z,90.85
2018-04-27T02:55:53.425Z,90.75
2018-04-27T02:56:53.427Z,89.90
2018-04-27T02:57:53.416Z,90.19
2018-04-27T02:58:53.415Z,90.47
2018-04-27T02:59:53.409Z,90.09
2018-04-27T03:00:53.420Z,90.47
2018-04-27T03:01:53.400Z,90.37
2018-04-27T03:02:53.392Z,90.09
2018-04-27T03:03:53.392Z,90.19
2018-04-27T03:04:53.383Z,90.19
2018-04-27T03:05:53.382Z,90.37
2018-04-27T03:06:53.376Z,90.56
2018-04-27T03:07:53.369Z,90.37
2018-04-27T03:08:53.367Z,90.75
2018-04-27T03:09:53.356Z,90.09
2018-04-27T03:10:53.369Z,90.42
2018-04-27T03:11:53.382Z,90.19
2018-04-27T03:12:53.445Z,90.42
2018-04-27T03:13:53.341Z,90.09
2018-04-27T03:14:53.333Z,90.28
2018-04-27T03:15:53.351Z,90.37
2018-04-27T03:16:53.339Z,90.14
2018-04-27T03:17:53.341Z,90.71
2018-04-27T03:18:53.331Z,90.14
2018-04-27T03:19:53.315Z,90.23
2018-04-27T03:20:53.328Z,90.52
2018-04-27T03:21:53.308Z,90.23
2018-04-27T03:22:53.300Z,90.52
2018-04-27T03:23:53.410Z,90.23
2018-04-27T03:24:53.346Z,91.56
2018-04-27T03:25:53.316Z,90.71
2018-04-27T03:26:53.305Z,90.80
2018-04-27T03:27:53.296Z,90.61
2018-04-27T03:28:53.308Z,90.52
2018-04-27T03:29:53.314Z,90.90
2018-04-27T03:30:53.268Z,90.33
2018-04-27T03:31:53.293Z,90.99
2018-04-27T03:32:53.275Z,91.38
2018-04-27T03:33:53.318Z,91.19
2018-04-27T03:34:53.327Z,92.04
2018-04-27T03:35:53.324Z,92.42
2018-04-27T03:36:53.278Z,91.75
2018-04-27T03:37:53.229Z,92.32
2018-04-27T03:38:53.221Z,92.23
2018-04-27T03:39:53.269Z,92.51
2018-04-27T03:40:53.252Z,92.23
2018-04-27T03:41:53.294Z,92.71
2018-04-27T03:42:53.277Z,91.71
2018-04-27T03:43:53.828Z,91.85
2018-04-27T03:44:53.216Z,91.85
2018-04-27T03:45:53.230Z,92.04
2018-04-27T03:46:53.182Z,91.71
2018-04-27T03:47:53.233Z,91.89
2018-04-27T03:48:53.210Z,91.66
2018-04-27T03:49:53.167Z,91.75
2018-04-27T03:50:53.232Z,92.13
2018-04-27T03:51:53.231Z,91.19
2018-04-27T03:52:53.269Z,91.47
2018-04-27T03:53:53.133Z,91.28
2018-04-27T03:54:53.148Z,91.28
2018-04-27T03:55:53.214Z,91.19
2018-04-27T03:56:53.121Z,91.38
2018-04-27T03:57:53.133Z,90.99
2018-04-27T03:58:53.110Z,90.61
2018-04-27T03:59:53.178Z,90.90
2018-04-27T04:00:53.103Z,90.80
2018-04-27T04:01:53.091Z,90.61
2018-04-27T04:02:53.091Z,90.80
2018-04-27T04:03:53.082Z,90.90
2018-04-27T04:04:53.082Z,90.33
2018-04-27T04:05:53.075Z,90.61
2018-04-27T04:06:53.066Z,90.71
2018-04-27T04:07:53.061Z,90.80
2018-04-27T04:08:53.066Z,90.71
2018-04-27T04:09:53.048Z,90.52
2018-04-27T04:10:53.055Z,90.52
2018-04-27T04:11:53.041Z,90.61
2018-04-27T04:12:53.037Z,90.80
2018-04-27T04:13:53.027Z,90.80
2018-04-27T04:14:53.023Z,91.19
2018-04-27T04:15:53.018Z,91.19
2018-04-27T04:16:53.012Z,91.38
2018-04-27T04:17:53.007Z,91.19
2018-04-27T04:18:53.003Z,91.19
2018-04-27T04:19:52.995Z,92.23
2018-04-27T04:20:52.994Z,91.85
2018-04-27T04:21:52.985Z,91.85
2018-04-27T04:22:52.981Z,92.13
2018-04-27T04:23:52.978Z,91.85
2018-04-27T04:24:52.972Z,92.13
2018-04-27T04:25:52.979Z,92.13
2018-04-27T04:26:52.966Z,91.94
2018-04-27T04:27:52.961Z,91.85
2018-04-27T04:28:52.962Z,91.94
2018-04-27T04:29:52.948Z,91.75
2018-04-27T04:30:52.947Z,92.04
2018-04-27T04:31:52.932Z,91.56
2018-04-27T04:32:52.928Z,92.13
2018-04-27T04:33:52.925Z,91.94
2018-04-27T04:34:52.917Z,91.56
2018-04-27T04:35:52.917Z,91.19
2018-04-27T04:36:52.912Z,91.33
2018-04-27T04:37:52.902Z,91.09
2018-04-27T04:38:52.895Z,91.19
2018-04-27T04:39:52.897Z,91.47
2018-04-27T04:40:52.890Z,91.38
2018-04-27T04:41:52.881Z,91.85
2018-04-27T04:42:52.876Z,92.04
2018-04-27T04:43:52.869Z,91.94
2018-04-27T04:44:52.866Z,92.04
2018-04-27T04:45:52.860Z,92.04
2018-04-27T04:46:52.854Z,92.18
2018-04-27T04:47:52.853Z,91.52
2018-04-27T04:48:52.854Z,91.19
2018-04-27T04:49:52.841Z,91.47
2018-04-27T04:50:52.833Z,91.42
2018-04-27T04:51:52.833Z,91.38
2018-04-27T04:52:52.824Z,91.80
2018-04-27T04:53:52.820Z,91.33
2018-04-27T04:54:52.814Z,91.13
2018-04-27T04:55:52.806Z,90.56
2018-04-27T04:56:52.802Z,90.66
2018-04-27T04:57:52.797Z,91.13
2018-04-27T04:58:52.789Z,90.47
2018-04-27T04:59:52.787Z,90.56
2018-04-27T05:00:52.778Z,90.66
2018-04-27T05:01:52.779Z,90.28
2018-04-27T05:02:52.774Z,90.00
2018-04-27T05:03:52.770Z,90.75
2018-04-27T05:04:52.763Z,90.56
2018-04-27T05:05:52.752Z,90.09
2018-04-27T05:06:52.757Z,90.37
2018-04-27T05:07:52.743Z,90.66
2018-04-27T05:08:52.738Z,90.28
2018-04-27T05:09:52.732Z,90.37
2018-04-27T05:10:52.805Z,90.37
2018-04-27T05:11:52.723Z,90.28
2018-04-27T05:12:52.733Z,90.56
2018-04-27T05:13:52.712Z,90.19
2018-04-27T05:14:52.711Z,90.09
2018-04-27T05:15:52.977Z,90.28
2018-04-27T05:16:52.701Z,89.90
2018-04-27T05:17:52.691Z,89.61
2018-04-27T05:18:52.687Z,89.04
2018-04-27T05:19:52.689Z,89.33
2018-04-27T05:20:52.677Z,89.09
2018-04-27T05:21:52.676Z,88.80
2018-04-27T05:22:52.669Z,88.67
2018-04-27T05:23:52.666Z,88.90
2018-04-27T05:24:52.658Z,88.80
2018-04-27T05:25:52.651Z,88.13
2018-04-27T05:26:52.648Z,87.66
2018-04-27T05:27:52.649Z,87.47
2018-04-27T05:28:52.641Z,86.90
2018-04-27T05:29:52.637Z,87.09
2018-04-27T05:30:52.635Z,87.09
2018-04-27T05:31:52.622Z,86.47
2018-04-27T05:32:52.623Z,86.33
2018-04-27T05:33:52.613Z,85.76
2018-04-27T05:34:52.610Z,85.66
2018-04-27T05:35:52.604Z,85.66
2018-04-27T05:36:52.605Z,86.14
2018-04-27T05:37:52.597Z,86.14
2018-04-27T05:38:52.590Z,86.52
2018-04-27T05:39:52.592Z,86.43
2018-04-27T05:40:52.585Z,86.24
2018-04-27T05:41:52.578Z,85.71
2018-04-27T05:42:52.598Z,85.14
2018-04-27T05:43:52.574Z,84.85
2018-04-27T05:44:52.572Z,85.33
2018-04-27T05:45:52.567Z,85.61
2018-04-27T05:46:53.366Z,85.42
2018-04-27T05:47:52.568Z,85.80
2018-04-27T05:48:52.618Z,85.80
2018-04-27T05:49:52.548Z,85.71
2018-04-27T05:50:52.542Z,85.52
2018-04-27T05:51:52.543Z,84.76
2018-04-27T05:52:52.530Z,85.04
2018-04-27T05:53:52.526Z,85.24
2018-04-27T05:54:52.523Z,85.42
2018-04-27T05:55:52.535Z,85.80
2018-04-27T05:56:52.514Z,85.80
2018-04-27T05:57:52.519Z,85.71
2018-04-27T05:58:52.505Z,85.80
2018-04-27T05:59:52.503Z,85.71
2018-04-27T06:00:52.507Z,85.99
2018-04-27T06:01:52.494Z,85.99
2018-04-27T06:02:52.491Z,85.61
2018-04-27T06:03:52.485Z,85.33
2018-04-27T06:04:52.481Z,84.95
2018-04-27T06:05:52.476Z,85.24
2018-04-27T06:06:52.478Z,85.24
2018-04-27T06:07:52.469Z,84.70
2018-04-27T06:08:52.467Z,84.61
2018-04-27T06:09:52.460Z,84.04
2018-04-27T06:10:52.458Z,83.94
2018-04-27T06:11:52.453Z,83.56
2018-04-27T06:12:52.451Z,83.85
2018-04-27T06:13:52.445Z,84.13
2018-04-27T06:14:52.443Z,83.75
2018-04-27T06:15:52.438Z,83.65
2018-04-27T06:16:52.436Z,83.47
2018-04-27T06:17:52.432Z,83.94
2018-04-27T06:18:52.428Z,83.75
2018-04-27T06:19:52.424Z,83.85
2018-04-27T06:20:52.426Z,83.37
2018-04-27T06:21:52.416Z,83.75
2018-04-27T06:22:52.415Z,83.56
2018-04-27T06:23:52.412Z,82.70
2018-04-27T06:24:52.408Z,83.18
2018-04-27T06:25:52.402Z,82.70
2018-04-27T06:26:52.404Z,83.56
2018-04-27T06:27:52.396Z,83.37
2018-04-27T06:28:52.392Z,83.22
2018-04-27T06:29:52.396Z,83.51
2018-04-27T06:30:52.394Z,82.93
2018-04-27T06:31:52.416Z,82.84
2018-04-27T06:32:52.381Z,82.84
2018-04-27T06:33:52.381Z,82.93
2018-04-27T06:34:52.423Z,81.89
2018-04-27T06:35:52.371Z,81.89
2018-04-27T06:36:52.373Z,81.32
2018-04-27T06:37:52.503Z,81.79
2018-04-27T06:38:52.359Z,81.51
2018-04-27T06:39:52.356Z,81.51
2018-04-27T06:40:52.353Z,81.32
2018-04-27T06:41:52.352Z,81.79
2018-04-27T06:42:52.349Z,80.55
2018-04-27T06:43:52.344Z,80.94
2018-04-27T06:44:52.354Z,80.94
2018-04-27T06:45:52.342Z,80.94
2018-04-27T06:46:52.344Z,80.75
2018-04-27T06:47:52.333Z,80.94
2018-04-27T06:48:52.333Z,80.94
2018-04-27T06:49:52.324Z,80.46
2018-04-27T06:50:52.324Z,80.18
2018-04-27T06:51:52.326Z,80.22
2018-04-27T06:52:52.322Z,80.69
2018-04-27T06:53:52.326Z,80.50
2018-04-27T06:54:52.315Z,79.93
2018-04-27T06:55:52.313Z,79.64
2018-04-27T06:56:52.314Z,79.36
2018-04-27T06:57:52.302Z,79.55
2018-04-27T06:58:52.302Z,79.36
2018-04-27T06:59:52.307Z,79.36
2018-04-27T07:00:52.303Z,78.98
2018-04-27T07:01:52.292Z,78.50
2018-04-27T07:02:52.549Z,77.83
2018-04-27T07:03:52.324Z,77.64
2018-04-27T07:04:52.295Z,77.83
2018-04-27T07:05:52.283Z,77.64
2018-04-27T07:06:52.487Z,77.87
2018-04-27T07:07:52.278Z,77.40
2018-04-27T07:08:52.274Z,76.73
2018-04-27T07:09:52.273Z,76.16
2018-04-27T07:10:52.270Z,75.78
2018-04-27T07:11:52.287Z,75.20
2018-04-27T07:12:52.267Z,75.11
2018-04-27T07:13:52.260Z,75.11
2018-04-27T07:14:52.261Z,75.40
2018-04-27T07:15:52.257Z,75.26
2018-04-27T07:16:52.283Z,74.73
2018-04-27T07:17:52.253Z,75.20
2018-04-27T07:18:52.526Z,75.11
2018-04-27T07:19:52.247Z,75.59
2018-04-27T07:20:52.243Z,74.73
2018-04-27T07:21:52.240Z,75.30
2018-04-27T07:22:52.242Z,75.01
2018-04-27T07:23:52.235Z,75.11
2018-04-27T07:24:52.240Z,74.82
2018-04-27T07:25:52.241Z,74.82
2018-04-27T07:26:52.228Z,74.63
2018-04-27T07:27:52.225Z,74.63
2018-04-27T07:28:52.228Z,74.48
2018-04-27T07:29:52.221Z,74.48
2018-04-27T07:30:52.239Z,73.81
2018-04-27T07:31:52.221Z,73.33
2018-04-27T07:32:52.220Z,73.24
2018-04-27T07:33:52.274Z,72.48
2018-04-27T07:34:52.224Z,72.57
2018-04-27T07:35:52.213Z,72.67
2018-04-27T07:36:52.210Z,72.38
2018-04-27T07:37:52.229Z,72.19
2018-04-27T07:38:52.204Z,72.19
2018-04-27T07:39:53.238Z,72.19
2018-04-27T07:40:52.200Z,71.62
2018-04-27T07:41:52.222Z,71.43
2018-04-27T07:42:52.205Z,71.37
2018-04-27T07:43:52.420Z,70.70
2018-04-27T07:44:52.197Z,71.14
2018-04-27T07:45:52.189Z,71.08
2018-04-27T07:46:52.215Z,70.86
2018-04-27T07:47:52.187Z,70.19
2018-04-27T07:48:52.186Z,70.95
2018-04-27T07:49:52.932Z,70.79
2018-04-27T07:50:52.181Z,70.38
2018-04-27T07:51:52.180Z,70.22
2018-04-27T07:52:52.185Z,70.57
2018-04-27T07:53:52.183Z,70.32
2018-04-27T07:54:52.174Z,70.42
2018-04-27T07:55:52.173Z,70.28
2018-04-27T07:56:52.172Z,70.09
2018-04-27T07:57:52.171Z,70.38
2018-04-27T07:58:52.187Z,70.32
2018-04-27T07:59:52.292Z,70.22
2018-04-27T08:00:52.256Z,69.93
2018-04-27T08:01:52.440Z,70.13
2018-04-27T08:02:52.160Z,70.13
2018-04-27T08:03:52.160Z,70.13
2018-04-27T08:04:53.060Z,70.13
2018-04-27T08:05:52.154Z,70.22
2018-04-27T08:06:52.158Z,70.13
2018-04-27T08:07:53.121Z,70.42
2018-04-27T08:08:52.157Z,70.22
2018-04-27T08:09:52.148Z,70.03
2018-04-27T08:10:52.153Z,69.37
2018-04-27T08:11:52.147Z,69.31
2018-04-27T08:12:52.962Z,69.31
2018-04-27T08:13:52.143Z,68.82
2018-04-27T08:14:52.147Z,68.63
2018-04-27T08:15:52.147Z,68.63
2018-04-27T08:16:52.139Z,68.63
2018-04-27T08:17:52.136Z,67.68
2018-04-27T08:18:52.137Z,67.30
2018-04-27T08:19:52.136Z,66.92
2018-04-27T08:20:52.133Z,67.21
2018-04-27T08:21:52.132Z,66.72
2018-04-27T08:22:52.129Z,66.92
2018-04-27T08:23:52.149Z,66.76
2018-04-27T08:24:52.133Z,67.11
2018-04-27T08:25:52.134Z,66.38
2018-04-27T08:26:52.131Z,66.85
2018-04-27T08:27:52.128Z,66.66
2018-04-27T08:28:52.123Z,66.28
2018-04-27T08:29:52.122Z,65.52
2018-04-27T08:30:52.120Z,65.23
2018-04-27T08:31:52.119Z,64.94
2018-04-27T08:32:52.119Z,64.09
2018-04-27T08:33:52.117Z,62.84
2018-04-27T08:34:52.120Z,62.65
2018-04-27T08:35:52.122Z,62.40
2018-04-27T08:36:52.117Z,62.30
2018-04-27T08:37:52.116Z,61.35
2018-04-27T08:38:52.120Z,61.25
2018-04-27T08:39:52.112Z,60.01
2018-04-27T08:40:52.119Z,59.63
2018-04-27T08:41:52.110Z,58.38
2018-04-27T08:42:52.322Z,58.48
2018-04-27T08:43:52.180Z,58.58
2018-04-27T08:44:52.109Z,58.38
2018-04-27T08:45:52.109Z,58.67
2018-04-27T08:46:52.113Z,58.95
2018-04-27T08:47:52.112Z,59.53
2018-04-27T08:48:52.107Z,59.63
2018-04-27T08:49:52.180Z,59.47
2018-04-27T08:50:52.109Z,59.24
2018-04-27T08:51:52.106Z,59.27
2018-04-27T08:52:52.108Z,59.47
2018-04-27T08:53:52.108Z,59.56
2018-04-27T08:54:52.105Z,59.69
2018-04-27T08:55:52.116Z,57.61
2018-04-27T08:56:52.111Z,55.27
2018-04-27T08:57:52.108Z,52.36
2018-04-27T08:58:52.104Z,49.72
2018-04-27T08:59:52.106Z,46.79
2018-04-27T09:00:52.108Z,44.62
2018-04-27T09:01:52.112Z,42.74
2018-04-27T09:02:52.112Z,41.24
2018-04-27T09:03:52.160Z,38.87
2018-04-27T09:04:52.137Z,37.08
2018-04-27T09:05:52.120Z,35.36
2018-04-27T09:06:52.244Z,33.81
2018-04-27T09:07:52.127Z,33.05
2018-04-27T09:08:52.135Z,32.97
2018-04-27T09:09:52.140Z,32.78
2018-04-27T09:10:52.145Z,32.60
2018-04-27T09:11:52.150Z,31.15
2018-04-27T09:12:52.153Z,30.46
2018-04-27T09:13:52.159Z,31.01
2018-04-27T09:14:52.164Z,32.62
2018-04-27T09:15:52.236Z,34.50
2018-04-27T09:16:52.178Z,35.71
2018-04-27T09:17:52.185Z,37.14
2018-04-27T09:18:52.193Z,37.12
2018-04-27T09:19:52.202Z,38.93
2018-04-27T09:20:52.201Z,39.79
2018-04-27T09:21:52.209Z,40.05
2018-04-27T09:22:52.209Z,39.28
2018-04-27T09:23:52.223Z,39.83
2018-04-27T09:24:52.222Z,40.02
2018-04-27T09:25:52.224Z,40.70
2018-04-27T09:26:52.285Z,41.25
2018-04-27T09:27:52.241Z,41.25
2018-04-27T09:28:52.237Z,41.44
2018-04-27T09:29:52.268Z,42.10
2018-04-27T09:30:52.247Z,43.44
2018-04-27T09:31:52.250Z,43.73
2018-04-27T09:32:52.259Z,44.97
2018-04-27T09:33:52.262Z,43.51
2018-04-27T09:34:52.259Z,42.17
2018-04-27T09:35:52.262Z,42.36
2018-04-27T09:36:52.269Z,42.65
2018-04-27T09:37:52.268Z,42.46
2018-04-27T09:38:52.292Z,42.07
2018-04-27T09:39:52.274Z,42.65
2018-04-27T09:40:52.278Z,42.55
2018-04-27T09:41:52.302Z,42.84
2018-04-27T09:42:52.284Z,44.18
2018-04-27T09:43:52.285Z,45.14
2018-04-27T09:44:52.286Z,45.04
2018-04-27T09:45:52.288Z,45.33
2018-04-27T09:46:52.292Z,44.95
2018-04-27T09:47:52.295Z,44.97
2018-04-27T09:48:52.298Z,44.20
2018-04-27T09:49:52.297Z,43.53
2018-04-27T09:50:52.300Z,43.82
2018-04-27T09:51:52.307Z,43.44
2018-04-27T09:52:52.557Z,43.53
2018-04-27T09:53:52.312Z,43.44
2018-04-27T09:54:52.311Z,43.53
2018-04-27T09:55:52.315Z,43.55
2018-04-27T09:56:52.332Z,43.46
2018-04-27T09:57:52.326Z,43.74
2018-04-27T09:58:52.334Z,43.94
2018-04-27T09:59:52.484Z,44.13
2018-04-27T10:00:52.337Z,43.65
2018-04-27T10:01:52.330Z,43.36
2018-04-27T10:02:52.326Z,43.65
2018-04-27T10:03:52.339Z,43.65
2018-04-27T10:04:52.338Z,42.69
2018-04-27T10:05:52.335Z,42.60
2018-04-27T10:06:52.345Z,42.21
2018-04-27T10:07:52.340Z,42.11
2018-04-27T10:08:52.348Z,42.11
2018-04-27T10:09:52.357Z,41.66
2018-04-27T10:10:52.346Z,42.23
2018-04-27T10:11:52.350Z,42.33
2018-04-27T10:12:52.352Z,42.23
2018-04-27T10:13:52.355Z,41.46
2018-04-27T10:14:52.370Z,41.56
2018-04-27T10:15:52.360Z,40.12
2018-04-27T10:16:52.362Z,39.45
2018-04-27T10:17:52.379Z,39.73
2018-04-27T10:18:52.367Z,39.54
2018-04-27T10:19:52.392Z,40.22
2018-04-27T10:20:52.374Z,40.02
2018-04-27T10:21:52.376Z,39.83
2018-04-27T10:22:52.378Z,39.64
2018-04-27T10:23:52.941Z,38.89
2018-04-27T10:24:52.397Z,38.41
2018-04-27T10:25:52.399Z,38.12
2018-04-27T10:26:52.406Z,38.02
2018-04-27T10:27:52.401Z,38.32
2018-04-27T10:28:52.399Z,37.45
2018-04-27T10:29:52.409Z,38.43
2018-04-27T10:30:52.486Z,37.57
2018-04-27T10:31:52.413Z,38.34
2018-04-27T10:32:52.427Z,37.27
2018-04-27T10:33:52.410Z,36.33
2018-04-27T10:34:52.425Z,35.85
2018-04-27T10:35:52.431Z,35.30
2018-04-27T10:36:52.424Z,34.25
2018-04-27T10:37:52.429Z,33.79
2018-04-27T10:38:52.508Z,32.46
2018-04-27T10:39:52.442Z,31.70
2018-04-27T10:40:52.439Z,30.85
2018-04-27T10:41:52.442Z,30.48
2018-04-27T10:42:52.458Z,30.48
2018-04-27T10:43:52.453Z,29.90
2018-04-27T10:44:52.458Z,29.14
2018-04-27T10:45:52.463Z,28.76
2018-04-27T10:46:52.470Z,28.28
2018-04-27T10:47:52.475Z,27.51
2018-04-27T10:48:52.492Z,27.03
2018-04-27T10:49:52.493Z,27.04
2018-04-27T10:50:52.499Z,26.86
2018-04-27T10:51:52.503Z,27.24
2018-04-27T10:52:52.517Z,27.33
2018-04-27T10:53:52.511Z,27.23
2018-04-27T10:54:53.313Z,26.93
2018-04-27T10:55:52.526Z,26.55
2018-04-27T10:56:52.533Z,26.55
2018-04-27T10:57:52.543Z,26.75
2018-04-27T10:58:52.545Z,26.37
2018-04-27T10:59:52.556Z,26.45
2018-04-27T11:00:52.561Z,26.64
2018-04-27T11:01:52.570Z,27.12
2018-04-27T11:02:52.573Z,27.12
2018-04-27T11:03:52.578Z,27.78
2018-04-27T11:04:52.584Z,28.05
2018-04-27T11:05:52.598Z,28.73
2018-04-27T11:06:52.599Z,29.10
2018-04-27T11:07:52.604Z,29.10
2018-04-27T11:08:52.724Z,28.99
2018-04-27T11:09:52.640Z,29.57
2018-04-27T11:10:52.734Z,29.86
2018-04-27T11:11:52.629Z,30.24
2018-04-27T11:12:52.651Z,29.86
2018-04-27T11:13:52.639Z,29.47
2018-04-27T11:14:52.648Z,28.99
2018-04-27T11:15:52.654Z,28.22
2018-04-27T11:16:52.990Z,28.41
2018-04-27T11:17:52.662Z,28.89
2018-04-27T11:18:52.671Z,28.78
2018-04-27T11:19:52.677Z,28.78
2018-04-27T11:20:52.678Z,29.07
2018-04-27T11:21:52.689Z,28.97
2018-04-27T11:22:52.690Z,29.07
2018-04-27T11:23:52.695Z,28.40
2018-04-27T11:24:52.700Z,28.49
2018-04-27T11:25:53.698Z,28.02
2018-04-27T11:26:52.707Z,27.53
2018-04-27T11:27:52.713Z,27.92
2018-04-27T11:28:52.719Z,28.20
2018-04-27T11:29:52.736Z,28.38
2018-04-27T11:30:52.727Z,28.96
2018-04-27T11:31:52.734Z,29.06
2018-04-27T11:32:52.739Z,28.86
2018-04-27T11:33:52.743Z,29.55
2018-04-27T11:34:52.748Z,29.07
2018-04-27T11:35:52.760Z,28.69
2018-04-27T11:36:52.757Z,28.78
2018-04-27T11:37:52.767Z,28.69
2018-04-27T11:38:52.769Z,28.88
2018-04-27T11:39:52.771Z,28.69
2018-04-27T11:40:52.774Z,28.40
2018-04-27T11:41:52.782Z,28.20
2018-04-27T11:42:52.787Z,28.00
2018-04-27T11:43:52.813Z,28.00
2018-04-27T11:44:52.798Z,28.38
2018-04-27T11:45:52.802Z,28.67
2018-04-27T11:46:52.814Z,28.85
2018-04-27T11:47:52.815Z,28.75
2018-04-27T11:48:52.811Z,28.66
2018-04-27T11:49:52.817Z,28.95
2018-04-27T11:50:52.820Z,29.62
2018-04-27T11:51:52.826Z,29.04
2018-04-27T11:52:52.829Z,28.75
2018-04-27T11:53:52.836Z,29.62
2018-04-27T11:54:52.836Z,28.85
2018-04-27T11:55:52.844Z,29.72
2018-04-27T11:56:53.055Z,28.84
2018-04-27T11:57:52.854Z,29.03
2018-04-27T11:58:52.867Z,29.04
2018-04-27T11:59:52.915Z,29.24
2018-04-27T12:00:52.864Z,29.43
2018-04-27T12:01:52.866Z,29.04
2018-04-27T12:02:52.873Z,29.91
2018-04-27T12:03:52.876Z,29.81
2018-04-27T12:04:52.880Z,29.81
2018-04-27T12:05:52.880Z,29.91
2018-04-27T12:06:52.885Z,29.81
2018-04-27T12:07:52.889Z,30.47
2018-04-27T12:08:52.895Z,30.28
2018-04-27T12:09:52.905Z,30.19
2018-04-27T12:10:52.901Z,30.39
2018-04-27T12:11:52.907Z,29.90
2018-04-27T12:12:52.914Z,30.18
2018-04-27T12:13:52.915Z,30.28
2018-04-27T12:14:52.931Z,30.47
2018-04-27T12:15:52.920Z,30.57
2018-04-27T12:16:52.924Z,30.57
2018-04-27T12:17:52.931Z,31.05
2018-04-27T12:18:52.933Z,31.82
2018-04-27T12:19:52.934Z,31.80
2018-04-27T12:20:52.937Z,31.70
2018-04-27T12:21:52.942Z,31.90
2018-04-27T12:22:52.943Z,32.47
2018-04-27T12:23:52.965Z,32.28
2018-04-27T12:24:52.953Z,32.38
2018-04-27T12:25:52.955Z,32.28
2018-04-27T12:26:52.966Z,32.18
2018-04-27T12:27:52.974Z,32.76
2018-04-27T12:28:52.967Z,32.76
2018-04-27T12:29:52.968Z,32.86
2018-04-27T12:30:53.039Z,32.76
2018-04-27T12:31:53.101Z,32.76
2018-04-27T12:32:52.981Z,33.36
2018-04-27T12:33:52.991Z,32.57
2018-04-27T12:34:52.986Z,32.47
2018-04-27T12:35:52.988Z,32.49
2018-04-27T12:36:52.991Z,32.01
2018-04-27T12:37:52.995Z,31.43
2018-04-27T12:38:53.011Z,31.53
2018-04-27T12:39:53.002Z,31.92
2018-04-27T12:40:53.004Z,31.82
2018-04-27T12:41:53.007Z,32.39
2018-04-27T12:42:53.013Z,31.92
2018-04-27T12:43:53.014Z,32.39
2018-04-27T12:44:53.024Z,31.82
2018-04-27T12:45:53.024Z,31.92
2018-04-27T12:46:53.024Z,32.01
2018-04-27T12:47:53.028Z,31.72
2018-04-27T12:48:53.029Z,31.62
2018-04-27T12:49:53.031Z,32.20
2018-04-27T12:50:53.042Z,31.82
2018-04-27T12:51:53.039Z,31.43
2018-04-27T12:52:53.044Z,31.82